Ethelsville, Alabama
Current Conditions -  °F | °C
As of 12:58 AM on Saturday 01 Nov 2014 (Local Time) from KCBM Reporting Station
Clear Clear  
Wind Chill: 33°   Ceiling: Unl
Heat Index: 39°   Visibility: 10mi
Dew Point: 26°   Wind: 9mph
Humidity: 58%   Direction: 300°WNW
Pressure: 30.25"   Gusts: NA
Location:  33.42°N, 88.22°W
Report Text: KCBM 010558Z AUTO 30008KT 10SM CLR 04/M03 A3025 RMK AO2 SLP247 60000 T00401035 10121 20040 401900040 50001 $
Loading
Personal Weather Stations






























Interactive Weather Map
Tropical Storm Tracking
New forecast layout! Learn more

10-Day Weather Forecast

Advertisements
Track Severe Weather on mobile